sensor_id;sensor_type;location;lat;lon;timestamp;P1;durP1;ratioP1;P2;durP2;ratioP2
66542;SDS011;53395;37.360;-122.046;2023-09-18T00:02:43;4.28;;;1.45;;
66542;SDS011;53395;37.360;-122.046;2023-09-18T00:05:27;3.83;;;1.40;;
66542;SDS011;53395;37.360;-122.046;2023-09-18T00:08:12;4.07;;;1.55;;
66542;SDS011;53395;37.360;-122.046;2023-09-18T00:10:57;3.55;;;1.58;;
66542;SDS011;53395;37.360;-122.046;2023-09-18T00:13:42;4.15;;;2.00;;
66542;SDS011;53395;37.360;-122.046;2023-09-18T00:16:27;3.08;;;1.67;;
66542;SDS011;53395;37.360;-122.046;2023-09-18T00:19:11;6.50;;;1.33;;
66542;SDS011;53395;37.360;-122.046;2023-09-18T00:21:56;2.85;;;1.50;;
66542;SDS011;53395;37.360;-122.046;2023-09-18T00:24:40;4.15;;;1.60;;
66542;SDS011;53395;37.360;-122.046;2023-09-18T00:27:25;3.35;;;1.50;;
66542;SDS011;53395;37.360;-122.046;2023-09-18T00:30:09;4.10;;;1.60;;
66542;SDS011;53395;37.360;-122.046;2023-09-18T00:32:55;4.30;;;1.25;;
66542;SDS011;53395;37.360;-122.046;2023-09-18T00:35:40;2.85;;;1.30;;
66542;SDS011;53395;37.360;-122.046;2023-09-18T00:38:24;3.00;;;1.65;;
66542;SDS011;53395;37.360;-122.046;2023-09-18T00:41:08;4.22;;;1.50;;
66542;SDS011;53395;37.360;-122.046;2023-09-18T00:43:53;2.97;;;1.63;;
66542;SDS011;53395;37.360;-122.046;2023-09-18T00:46:38;4.15;;;1.45;;
66542;SDS011;53395;37.360;-122.046;2023-09-18T00:49:22;3.75;;;1.55;;
66542;SDS011;53395;37.360;-122.046;2023-09-18T00:52:07;4.93;;;1.75;;
66542;SDS011;53395;37.360;-122.046;2023-09-18T00:57:37;3.38;;;1.63;;
66542;SDS011;53395;37.360;-122.046;2023-09-18T01:00:22;4.90;;;1.80;;
66542;SDS011;53395;37.360;-122.046;2023-09-18T01:08:35;2.72;;;1.48;;
66542;SDS011;53395;37.360;-122.046;2023-09-18T01:14:19;2.90;;;1.38;;
66542;SDS011;53395;37.360;-122.046;2023-09-18T01:17:04;5.07;;;1.55;;
66542;SDS011;53395;37.360;-122.046;2023-09-18T01:19:51;3.17;;;1.27;;
66542;SDS011;53395;37.360;-122.046;2023-09-18T01:22:36;3.90;;;1.35;;
66542;SDS011;53395;37.360;-122.046;2023-09-18T01:25:20;2.97;;;1.48;;
66542;SDS011;53395;37.360;-122.046;2023-09-18T01:28:05;3.67;;;1.35;;
66542;SDS011;53395;37.360;-122.046;2023-09-18T01:30:50;3.05;;;1.52;;
66542;SDS011;53395;37.360;-122.046;2023-09-18T01:33:34;3.13;;;1.40;;
66542;SDS011;53395;37.360;-122.046;2023-09-18T01:36:20;3.50;;;1.40;;
66542;SDS011;53395;37.360;-122.046;2023-09-18T01:39:05;6.50;;;1.60;;
66542;SDS011;53395;37.360;-122.046;2023-09-18T01:44:34;3.25;;;1.50;;
66542;SDS011;53395;37.360;-122.046;2023-09-18T01:47:20;3.85;;;1.55;;
66542;SDS011;53395;37.360;-122.046;2023-09-18T01:50:05;5.03;;;2.60;;
66542;SDS011;53395;37.360;-122.046;2023-09-18T01:52:50;2.72;;;1.60;;
66542;SDS011;53395;37.360;-122.046;2023-09-18T01:55:35;3.22;;;1.60;;
66542;SDS011;53395;37.360;-122.046;2023-09-18T01:58:19;4.50;;;1.85;;
66542;SDS011;53395;37.360;-122.046;2023-09-18T02:01:04;4.60;;;1.70;;
66542;SDS011;53395;37.360;-122.046;2023-09-18T02:03:49;4.28;;;1.73;;
66542;SDS011;53395;37.360;-122.046;2023-09-18T02:06:34;3.75;;;1.55;;
66542;SDS011;53395;37.360;-122.046;2023-09-18T02:09:18;3.42;;;1.70;;
66542;SDS011;53395;37.360;-122.046;2023-09-18T02:12:03;3.85;;;1.70;;
66542;SDS011;53395;37.360;-122.046;2023-09-18T02:14:48;4.65;;;1.70;;
66542;SDS011;53395;37.360;-122.046;2023-09-18T02:17:32;3.65;;;1.70;;
66542;SDS011;53395;37.360;-122.046;2023-09-18T02:20:17;3.95;;;1.38;;
66542;SDS011;53395;37.360;-122.046;2023-09-18T02:23:02;4.35;;;1.42;;
66542;SDS011;53395;37.360;-122.046;2023-09-18T02:25:46;3.33;;;1.73;;
66542;SDS011;53395;37.360;-122.046;2023-09-18T02:28:39;4.03;;;1.90;;
66542;SDS011;53395;37.360;-122.046;2023-09-18T02:31:23;4.20;;;1.67;;
66542;SDS011;53395;37.360;-122.046;2023-09-18T02:34:08;4.07;;;1.80;;
66542;SDS011;53395;37.360;-122.046;2023-09-18T02:39:38;4.70;;;1.73;;
66542;SDS011;53395;37.360;-122.046;2023-09-18T02:42:22;3.00;;;1.65;;
66542;SDS011;53395;37.360;-122.046;2023-09-18T02:45:07;5.10;;;2.15;;
66542;SDS011;53395;37.360;-122.046;2023-09-18T02:47:53;4.05;;;2.00;;
66542;SDS011;53395;37.360;-122.046;2023-09-18T02:50:37;4.72;;;1.73;;
66542;SDS011;53395;37.360;-122.046;2023-09-18T02:53:22;4.35;;;2.40;;
66542;SDS011;53395;37.360;-122.046;2023-09-18T02:56:07;5.25;;;1.92;;
66542;SDS011;53395;37.360;-122.046;2023-09-18T02:58:52;5.60;;;1.92;;
66542;SDS011;53395;37.360;-122.046;2023-09-18T03:01:36;5.80;;;2.15;;
66542;SDS011;53395;37.360;-122.046;2023-09-18T03:04:21;5.07;;;1.65;;
66542;SDS011;53395;37.360;-122.046;2023-09-18T03:07:06;4.88;;;1.90;;
66542;SDS011;53395;37.360;-122.046;2023-09-18T03:09:50;4.55;;;1.90;;
66542;SDS011;53395;37.360;-122.046;2023-09-18T03:12:35;6.72;;;2.30;;
66542;SDS011;53395;37.360;-122.046;2023-09-18T03:15:20;3.38;;;1.88;;
66542;SDS011;53395;37.360;-122.046;2023-09-18T03:18:05;3.70;;;1.80;;
66542;SDS011;53395;37.360;-122.046;2023-09-18T03:20:51;4.07;;;1.90;;
66542;SDS011;53395;37.360;-122.046;2023-09-18T03:23:35;6.15;;;2.03;;
66542;SDS011;53395;37.360;-122.046;2023-09-18T03:26:20;5.05;;;1.88;;
66542;SDS011;53395;37.360;-122.046;2023-09-18T03:29:04;5.57;;;2.40;;
66542;SDS011;53395;37.360;-122.046;2023-09-18T03:31:49;6.82;;;2.30;;
66542;SDS011;53395;37.360;-122.046;2023-09-18T03:34:33;4.20;;;2.28;;
66542;SDS011;53395;37.360;-122.046;2023-09-18T03:37:18;5.75;;;2.42;;
66542;SDS011;53395;37.360;-122.046;2023-09-18T03:40:02;6.40;;;2.78;;
66542;SDS011;53395;37.360;-122.046;2023-09-18T03:42:47;4.90;;;2.40;;
66542;SDS011;53395;37.360;-122.046;2023-09-18T03:45:32;6.10;;;2.78;;
66542;SDS011;53395;37.360;-122.046;2023-09-18T03:48:17;4.82;;;2.03;;
66542;SDS011;53395;37.360;-122.046;2023-09-18T03:51:02;5.50;;;2.40;;
66542;SDS011;53395;37.360;-122.046;2023-09-18T03:53:46;6.10;;;2.83;;
66542;SDS011;53395;37.360;-122.046;2023-09-18T03:56:32;4.03;;;2.35;;
66542;SDS011;53395;37.360;-122.046;2023-09-18T03:59:17;5.57;;;2.40;;
66542;SDS011;53395;37.360;-122.046;2023-09-18T04:02:01;4.97;;;2.92;;
66542;SDS011;53395;37.360;-122.046;2023-09-18T04:04:47;6.70;;;3.13;;
66542;SDS011;53395;37.360;-122.046;2023-09-18T04:07:31;5.85;;;2.90;;
66542;SDS011;53395;37.360;-122.046;2023-09-18T04:10:16;6.50;;;3.70;;
66542;SDS011;53395;37.360;-122.046;2023-09-18T04:13:06;8.70;;;3.47;;
66542;SDS011;53395;37.360;-122.046;2023-09-18T04:15:52;7.00;;;3.40;;
66542;SDS011;53395;37.360;-122.046;2023-09-18T04:18:41;5.93;;;3.30;;
66542;SDS011;53395;37.360;-122.046;2023-09-18T04:21:27;6.35;;;3.30;;
66542;SDS011;53395;37.360;-122.046;2023-09-18T04:24:13;6.55;;;3.83;;
66542;SDS011;53395;37.360;-122.046;2023-09-18T04:26:57;7.63;;;3.45;;
66542;SDS011;53395;37.360;-122.046;2023-09-18T04:29:42;5.45;;;3.53;;
66542;SDS011;53395;37.360;-122.046;2023-09-18T04:32:29;5.47;;;3.25;;
66542;SDS011;53395;37.360;-122.046;2023-09-18T04:35:14;6.32;;;3.45;;
66542;SDS011;53395;37.360;-122.046;2023-09-18T04:37:59;7.35;;;3.60;;
66542;SDS011;53395;37.360;-122.046;2023-09-18T04:40:44;8.65;;;3.47;;
66542;SDS011;53395;37.360;-122.046;2023-09-18T04:43:29;7.03;;;3.80;;
66542;SDS011;53395;37.360;-122.046;2023-09-18T04:46:14;7.70;;;3.42;;
66542;SDS011;53395;37.360;-122.046;2023-09-18T04:48:59;7.47;;;3.53;;
66542;SDS011;53395;37.360;-122.046;2023-09-18T04:51:44;6.47;;;3.42;;
66542;SDS011;53395;37.360;-122.046;2023-09-18T04:54:30;8.10;;;3.70;;
66542;SDS011;53395;37.360;-122.046;2023-09-18T04:57:15;6.20;;;3.45;;
66542;SDS011;53395;37.360;-122.046;2023-09-18T04:59:59;9.13;;;3.85;;
66542;SDS011;53395;37.360;-122.046;2023-09-18T05:02:44;7.20;;;3.67;;
66542;SDS011;53395;37.360;-122.046;2023-09-18T05:05:28;8.80;;;3.72;;
66542;SDS011;53395;37.360;-122.046;2023-09-18T05:08:13;6.85;;;3.45;;
66542;SDS011;53395;37.360;-122.046;2023-09-18T05:10:58;8.95;;;4.05;;
66542;SDS011;53395;37.360;-122.046;2023-09-18T05:13:42;5.90;;;3.78;;
66542;SDS011;53395;37.360;-122.046;2023-09-18T05:16:27;7.95;;;4.05;;
66542;SDS011;53395;37.360;-122.046;2023-09-18T05:21:56;7.38;;;3.88;;
66542;SDS011;53395;37.360;-122.046;2023-09-18T05:24:42;8.25;;;3.58;;
66542;SDS011;53395;37.360;-122.046;2023-09-18T05:27:26;5.57;;;3.58;;
66542;SDS011;53395;37.360;-122.046;2023-09-18T05:30:12;8.05;;;3.88;;
66542;SDS011;53395;37.360;-122.046;2023-09-18T05:32:58;6.47;;;3.70;;
66542;SDS011;53395;37.360;-122.046;2023-09-18T05:35:48;6.82;;;3.60;;
66542;SDS011;53395;37.360;-122.046;2023-09-18T05:41:18;10.05;;;4.03;;
66542;SDS011;53395;37.360;-122.046;2023-09-18T05:44:02;6.97;;;3.45;;
66542;SDS011;53395;37.360;-122.046;2023-09-18T05:46:48;7.72;;;3.80;;
66542;SDS011;53395;37.360;-122.046;2023-09-18T05:49:33;9.27;;;3.80;;
66542;SDS011;53395;37.360;-122.046;2023-09-18T05:52:19;8.18;;;4.18;;
66542;SDS011;53395;37.360;-122.046;2023-09-18T05:55:04;7.60;;;3.72;;
66542;SDS011;53395;37.360;-122.046;2023-09-18T05:57:48;9.27;;;4.20;;
66542;SDS011;53395;37.360;-122.046;2023-09-18T06:00:33;8.63;;;3.90;;
66542;SDS011;53395;37.360;-122.046;2023-09-18T06:03:18;7.72;;;3.92;;
66542;SDS011;53395;37.360;-122.046;2023-09-18T06:06:04;6.35;;;3.75;;
66542;SDS011;53395;37.360;-122.046;2023-09-18T06:08:49;8.70;;;4.25;;
66542;SDS011;53395;37.360;-122.046;2023-09-18T06:11:33;6.03;;;3.47;;
66542;SDS011;53395;37.360;-122.046;2023-09-18T06:14:18;7.80;;;4.20;;
66542;SDS011;53395;37.360;-122.046;2023-09-18T06:17:03;7.55;;;3.65;;
66542;SDS011;53395;37.360;-122.046;2023-09-18T06:19:48;8.35;;;4.10;;
66542;SDS011;53395;37.360;-122.046;2023-09-18T06:22:32;9.23;;;4.07;;
66542;SDS011;53395;37.360;-122.046;2023-09-18T06:25:17;7.05;;;4.13;;
66542;SDS011;53395;37.360;-122.046;2023-09-18T06:28:02;8.82;;;3.92;;
66542;SDS011;53395;37.360;-122.046;2023-09-18T06:30:47;6.90;;;3.75;;
66542;SDS011;53395;37.360;-122.046;2023-09-18T06:33:32;7.57;;;3.83;;
66542;SDS011;53395;37.360;-122.046;2023-09-18T06:36:17;8.07;;;4.20;;
66542;SDS011;53395;37.360;-122.046;2023-09-18T06:39:01;6.88;;;4.22;;
66542;SDS011;53395;37.360;-122.046;2023-09-18T06:41:46;9.00;;;4.53;;
66542;SDS011;53395;37.360;-122.046;2023-09-18T06:44:31;11.88;;;4.38;;
66542;SDS011;53395;37.360;-122.046;2023-09-18T06:47:15;6.50;;;4.15;;
66542;SDS011;53395;37.360;-122.046;2023-09-18T06:50:00;8.45;;;4.30;;
66542;SDS011;53395;37.360;-122.046;2023-09-18T06:52:45;6.50;;;3.47;;
66542;SDS011;53395;37.360;-122.046;2023-09-18T06:58:16;7.43;;;3.47;;
66542;SDS011;53395;37.360;-122.046;2023-09-18T07:01:00;7.80;;;3.75;;
66542;SDS011;53395;37.360;-122.046;2023-09-18T07:03:47;6.10;;;3.40;;
66542;SDS011;53395;37.360;-122.046;2023-09-18T07:06:32;6.30;;;3.53;;
66542;SDS011;53395;37.360;-122.046;2023-09-18T07:09:16;7.22;;;3.40;;
66542;SDS011;53395;37.360;-122.046;2023-09-18T07:12:02;9.18;;;3.40;;
66542;SDS011;53395;37.360;-122.046;2023-09-18T07:17:31;4.47;;;2.83;;
66542;SDS011;53395;37.360;-122.046;2023-09-18T07:20:16;5.18;;;3.03;;
66542;SDS011;53395;37.360;-122.046;2023-09-18T07:23:00;6.28;;;2.40;;
66542;SDS011;53395;37.360;-122.046;2023-09-18T07:25:47;4.38;;;2.30;;
66542;SDS011;53395;37.360;-122.046;2023-09-18T07:28:31;4.95;;;2.45;;
66542;SDS011;53395;37.360;-122.046;2023-09-18T07:31:16;4.00;;;2.00;;
66542;SDS011;53395;37.360;-122.046;2023-09-18T07:34:01;5.25;;;2.45;;
66542;SDS011;53395;37.360;-122.046;2023-09-18T07:36:45;5.25;;;2.33;;
66542;SDS011;53395;37.360;-122.046;2023-09-18T07:39:29;4.75;;;2.30;;
66542;SDS011;53395;37.360;-122.046;2023-09-18T07:42:14;4.65;;;2.30;;
66542;SDS011;53395;37.360;-122.046;2023-09-18T07:44:59;4.07;;;2.20;;
66542;SDS011;53395;37.360;-122.046;2023-09-18T07:47:43;4.65;;;2.17;;
66542;SDS011;53395;37.360;-122.046;2023-09-18T07:50:28;4.15;;;2.33;;
66542;SDS011;53395;37.360;-122.046;2023-09-18T07:53:12;4.20;;;2.38;;
66542;SDS011;53395;37.360;-122.046;2023-09-18T07:55:57;5.28;;;2.40;;
66542;SDS011;53395;37.360;-122.046;2023-09-18T07:58:42;5.25;;;2.47;;
66542;SDS011;53395;37.360;-122.046;2023-09-18T08:01:27;5.38;;;2.33;;
66542;SDS011;53395;37.360;-122.046;2023-09-18T08:04:12;3.40;;;2.20;;
66542;SDS011;53395;37.360;-122.046;2023-09-18T08:06:57;3.85;;;1.98;;
66542;SDS011;53395;37.360;-122.046;2023-09-18T08:09:41;5.65;;;2.40;;
66542;SDS011;53395;37.360;-122.046;2023-09-18T08:12:26;4.95;;;2.38;;
66542;SDS011;53395;37.360;-122.046;2023-09-18T08:15:11;4.68;;;2.40;;
66542;SDS011;53395;37.360;-122.046;2023-09-18T08:17:56;7.00;;;2.50;;
66542;SDS011;53395;37.360;-122.046;2023-09-18T08:20:40;4.00;;;2.35;;
66542;SDS011;53395;37.360;-122.046;2023-09-18T08:23:25;7.80;;;2.60;;
66542;SDS011;53395;37.360;-122.046;2023-09-18T08:26:09;4.55;;;2.42;;
66542;SDS011;53395;37.360;-122.046;2023-09-18T08:28:54;4.35;;;2.17;;
66542;SDS011;53395;37.360;-122.046;2023-09-18T08:31:39;5.10;;;2.30;;
66542;SDS011;53395;37.360;-122.046;2023-09-18T08:34:23;5.30;;;2.40;;
66542;SDS011;53395;37.360;-122.046;2023-09-18T08:37:08;4.10;;;2.15;;
66542;SDS011;53395;37.360;-122.046;2023-09-18T08:39:53;5.18;;;2.05;;
66542;SDS011;53395;37.360;-122.046;2023-09-18T08:42:38;4.47;;;2.22;;
66542;SDS011;53395;37.360;-122.046;2023-09-18T08:48:17;6.13;;;2.40;;
66542;SDS011;53395;37.360;-122.046;2023-09-18T08:51:05;4.82;;;2.22;;
66542;SDS011;53395;37.360;-122.046;2023-09-18T08:53:50;5.72;;;2.70;;
66542;SDS011;53395;37.360;-122.046;2023-09-18T08:56:35;4.78;;;2.50;;
66542;SDS011;53395;37.360;-122.046;2023-09-18T08:59:20;4.53;;;2.42;;
66542;SDS011;53395;37.360;-122.046;2023-09-18T09:02:05;6.43;;;2.50;;
66542;SDS011;53395;37.360;-122.046;2023-09-18T09:04:50;6.63;;;2.97;;
66542;SDS011;53395;37.360;-122.046;2023-09-18T09:07:35;5.85;;;2.75;;
66542;SDS011;53395;37.360;-122.046;2023-09-18T09:10:20;5.10;;;2.78;;
66542;SDS011;53395;37.360;-122.046;2023-09-18T09:13:04;5.63;;;2.67;;
66542;SDS011;53395;37.360;-122.046;2023-09-18T09:15:49;4.90;;;2.55;;
66542;SDS011;53395;37.360;-122.046;2023-09-18T09:18:34;6.13;;;2.63;;
66542;SDS011;53395;37.360;-122.046;2023-09-18T09:21:19;5.65;;;2.45;;
66542;SDS011;53395;37.360;-122.046;2023-09-18T09:24:03;4.57;;;2.45;;
66542;SDS011;53395;37.360;-122.046;2023-09-18T09:26:57;6.88;;;2.33;;
66542;SDS011;53395;37.360;-122.046;2023-09-18T09:29:41;8.45;;;2.40;;
66542;SDS011;53395;37.360;-122.046;2023-09-18T09:32:29;4.72;;;2.72;;
66542;SDS011;53395;37.360;-122.046;2023-09-18T09:35:22;6.28;;;2.70;;
66542;SDS011;53395;37.360;-122.046;2023-09-18T09:38:08;4.25;;;2.35;;
66542;SDS011;53395;37.360;-122.046;2023-09-18T09:40:53;5.15;;;2.75;;
66542;SDS011;53395;37.360;-122.046;2023-09-18T09:43:37;4.53;;;2.80;;
66542;SDS011;53395;37.360;-122.046;2023-09-18T09:46:25;6.07;;;2.88;;
66542;SDS011;53395;37.360;-122.046;2023-09-18T09:49:10;4.78;;;2.30;;
66542;SDS011;53395;37.360;-122.046;2023-09-18T09:51:55;8.02;;;2.80;;
66542;SDS011;53395;37.360;-122.046;2023-09-18T09:54:43;5.78;;;2.40;;
66542;SDS011;53395;37.360;-122.046;2023-09-18T09:57:28;6.88;;;2.63;;
66542;SDS011;53395;37.360;-122.046;2023-09-18T10:00:13;6.07;;;2.47;;
66542;SDS011;53395;37.360;-122.046;2023-09-18T10:03:11;4.53;;;2.47;;
66542;SDS011;53395;37.360;-122.046;2023-09-18T10:05:56;6.25;;;2.40;;
66542;SDS011;53395;37.360;-122.046;2023-09-18T10:08:42;6.25;;;2.70;;
66542;SDS011;53395;37.360;-122.046;2023-09-18T10:11:26;7.47;;;2.88;;
66542;SDS011;53395;37.360;-122.046;2023-09-18T10:14:12;4.82;;;2.60;;
66542;SDS011;53395;37.360;-122.046;2023-09-18T10:17:04;6.13;;;2.53;;
66542;SDS011;53395;37.360;-122.046;2023-09-18T10:19:58;7.07;;;2.90;;
66542;SDS011;53395;37.360;-122.046;2023-09-18T10:23:00;4.80;;;2.90;;
66542;SDS011;53395;37.360;-122.046;2023-09-18T10:25:46;7.55;;;2.67;;
66542;SDS011;53395;37.360;-122.046;2023-09-18T10:28:33;5.68;;;2.53;;
66542;SDS011;53395;37.360;-122.046;2023-09-18T10:31:18;5.57;;;2.70;;
66542;SDS011;53395;37.360;-122.046;2023-09-18T10:34:02;5.95;;;2.78;;
66542;SDS011;53395;37.360;-122.046;2023-09-18T10:36:49;4.63;;;2.50;;
66542;SDS011;53395;37.360;-122.046;2023-09-18T10:39:37;6.95;;;2.75;;
66542;SDS011;53395;37.360;-122.046;2023-09-18T10:42:24;5.05;;;3.08;;
66542;SDS011;53395;37.360;-122.046;2023-09-18T10:45:09;5.13;;;2.35;;
66542;SDS011;53395;37.360;-122.046;2023-09-18T10:47:54;5.53;;;2.75;;
66542;SDS011;53395;37.360;-122.046;2023-09-18T10:50:39;6.88;;;2.90;;
66542;SDS011;53395;37.360;-122.046;2023-09-18T10:53:25;4.63;;;2.50;;
66542;SDS011;53395;37.360;-122.046;2023-09-18T10:56:09;5.93;;;2.75;;
66542;SDS011;53395;37.360;-122.046;2023-09-18T10:59:00;6.00;;;2.70;;
66542;SDS011;53395;37.360;-122.046;2023-09-18T11:01:45;7.35;;;2.90;;
66542;SDS011;53395;37.360;-122.046;2023-09-18T11:04:32;5.25;;;2.67;;
66542;SDS011;53395;37.360;-122.046;2023-09-18T11:07:20;6.28;;;2.97;;
66542;SDS011;53395;37.360;-122.046;2023-09-18T11:13:08;5.53;;;2.95;;
66542;SDS011;53395;37.360;-122.046;2023-09-18T11:15:58;7.40;;;3.15;;
66542;SDS011;53395;37.360;-122.046;2023-09-18T11:18:48;9.18;;;3.03;;
66542;SDS011;53395;37.360;-122.046;2023-09-18T11:21:34;7.05;;;2.90;;
66542;SDS011;53395;37.360;-122.046;2023-09-18T11:24:21;5.32;;;2.83;;
66542;SDS011;53395;37.360;-122.046;2023-09-18T11:27:07;6.30;;;3.15;;
66542;SDS011;53395;37.360;-122.046;2023-09-18T11:29:54;6.85;;;2.83;;
66542;SDS011;53395;37.360;-122.046;2023-09-18T11:32:38;5.85;;;2.92;;
66542;SDS011;53395;37.360;-122.046;2023-09-18T11:35:24;4.28;;;2.58;;
66542;SDS011;53395;37.360;-122.046;2023-09-18T11:40:53;5.25;;;2.70;;
66542;SDS011;53395;37.360;-122.046;2023-09-18T11:43:38;7.10;;;2.90;;
66542;SDS011;53395;37.360;-122.046;2023-09-18T11:49:10;6.20;;;3.58;;
66542;SDS011;53395;37.360;-122.046;2023-09-18T11:51:55;5.32;;;2.90;;
66542;SDS011;53395;37.360;-122.046;2023-09-18T11:54:43;6.60;;;3.30;;
66542;SDS011;53395;37.360;-122.046;2023-09-18T11:57:29;7.45;;;2.70;;
66542;SDS011;53395;37.360;-122.046;2023-09-18T12:00:19;6.32;;;3.20;;
66542;SDS011;53395;37.360;-122.046;2023-09-18T12:03:16;7.28;;;3.03;;
66542;SDS011;53395;37.360;-122.046;2023-09-18T12:06:02;6.10;;;3.08;;
66542;SDS011;53395;37.360;-122.046;2023-09-18T12:08:51;7.28;;;2.97;;
66542;SDS011;53395;37.360;-122.046;2023-09-18T12:11:35;5.50;;;2.92;;
66542;SDS011;53395;37.360;-122.046;2023-09-18T12:14:21;6.72;;;3.15;;
66542;SDS011;53395;37.360;-122.046;2023-09-18T12:17:06;8.80;;;3.20;;
66542;SDS011;53395;37.360;-122.046;2023-09-18T12:19:52;7.15;;;2.97;;
66542;SDS011;53395;37.360;-122.046;2023-09-18T12:25:21;7.10;;;2.67;;
66542;SDS011;53395;37.360;-122.046;2023-09-18T12:28:07;6.78;;;3.20;;
66542;SDS011;53395;37.360;-122.046;2023-09-18T12:30:52;8.98;;;2.95;;
66542;SDS011;53395;37.360;-122.046;2023-09-18T12:33:41;8.20;;;2.90;;
66542;SDS011;53395;37.360;-122.046;2023-09-18T12:36:27;5.15;;;2.72;;
66542;SDS011;53395;37.360;-122.046;2023-09-18T12:39:14;6.47;;;2.80;;
66542;SDS011;53395;37.360;-122.046;2023-09-18T12:42:02;5.18;;;3.28;;
66542;SDS011;53395;37.360;-122.046;2023-09-18T12:44:48;6.15;;;3.13;;
66542;SDS011;53395;37.360;-122.046;2023-09-18T12:47:33;6.95;;;2.85;;
66542;SDS011;53395;37.360;-122.046;2023-09-18T12:50:18;8.38;;;3.53;;
66542;SDS011;53395;37.360;-122.046;2023-09-18T12:53:11;7.68;;;3.50;;
66542;SDS011;53395;37.360;-122.046;2023-09-18T12:58:50;9.52;;;3.53;;
66542;SDS011;53395;37.360;-122.046;2023-09-18T13:01:34;7.88;;;3.10;;
66542;SDS011;53395;37.360;-122.046;2023-09-18T13:04:21;11.90;;;3.60;;
66542;SDS011;53395;37.360;-122.046;2023-09-18T13:07:08;7.15;;;3.20;;
66542;SDS011;53395;37.360;-122.046;2023-09-18T13:09:59;12.23;;;3.05;;
66542;SDS011;53395;37.360;-122.046;2023-09-18T13:12:47;5.43;;;3.00;;
66542;SDS011;53395;37.360;-122.046;2023-09-18T13:15:34;6.25;;;2.95;;
66542;SDS011;53395;37.360;-122.046;2023-09-18T13:18:19;7.45;;;3.03;;
66542;SDS011;53395;37.360;-122.046;2023-09-18T13:21:10;5.47;;;3.08;;
66542;SDS011;53395;37.360;-122.046;2023-09-18T13:23:55;8.38;;;3.22;;
66542;SDS011;53395;37.360;-122.046;2023-09-18T13:26:39;7.93;;;2.67;;
66542;SDS011;53395;37.360;-122.046;2023-09-18T13:29:24;12.65;;;3.10;;
66542;SDS011;53395;37.360;-122.046;2023-09-18T13:32:09;7.68;;;3.20;;
66542;SDS011;53395;37.360;-122.046;2023-09-18T13:34:53;6.93;;;3.10;;
66542;SDS011;53395;37.360;-122.046;2023-09-18T13:37:38;12.13;;;3.58;;
66542;SDS011;53395;37.360;-122.046;2023-09-18T13:40:22;9.98;;;3.15;;
66542;SDS011;53395;37.360;-122.046;2023-09-18T13:43:10;6.95;;;3.10;;
66542;SDS011;53395;37.360;-122.046;2023-09-18T13:45:55;7.45;;;3.30;;
66542;SDS011;53395;37.360;-122.046;2023-09-18T13:48:40;8.23;;;3.00;;
66542;SDS011;53395;37.360;-122.046;2023-09-18T13:51:25;8.95;;;3.42;;
66542;SDS011;53395;37.360;-122.046;2023-09-18T13:54:10;7.00;;;3.47;;
66542;SDS011;53395;37.360;-122.046;2023-09-18T13:56:54;8.57;;;3.28;;
66542;SDS011;53395;37.360;-122.046;2023-09-18T13:59:40;9.63;;;3.78;;
66542;SDS011;53395;37.360;-122.046;2023-09-18T14:02:24;7.28;;;3.10;;
66542;SDS011;53395;37.360;-122.046;2023-09-18T14:05:11;8.52;;;4.13;;
66542;SDS011;53395;37.360;-122.046;2023-09-18T14:07:57;7.43;;;3.63;;
66542;SDS011;53395;37.360;-122.046;2023-09-18T14:10:44;7.90;;;3.58;;
66542;SDS011;53395;37.360;-122.046;2023-09-18T14:13:29;7.43;;;3.60;;
66542;SDS011;53395;37.360;-122.046;2023-09-18T14:16:13;9.05;;;3.45;;
66542;SDS011;53395;37.360;-122.046;2023-09-18T14:18:59;9.57;;;3.50;;
66542;SDS011;53395;37.360;-122.046;2023-09-18T14:21:43;7.15;;;3.78;;
66542;SDS011;53395;37.360;-122.046;2023-09-18T14:27:13;10.80;;;4.22;;
66542;SDS011;53395;37.360;-122.046;2023-09-18T14:29:58;7.10;;;3.92;;
66542;SDS011;53395;37.360;-122.046;2023-09-18T14:32:42;9.80;;;4.20;;
66542;SDS011;53395;37.360;-122.046;2023-09-18T14:35:27;7.43;;;3.80;;
66542;SDS011;53395;37.360;-122.046;2023-09-18T14:38:12;10.98;;;4.30;;
66542;SDS011;53395;37.360;-122.046;2023-09-18T14:40:58;11.73;;;3.97;;
66542;SDS011;53395;37.360;-122.046;2023-09-18T14:43:46;6.75;;;3.70;;
66542;SDS011;53395;37.360;-122.046;2023-09-18T14:46:31;8.63;;;4.10;;
66542;SDS011;53395;37.360;-122.046;2023-09-18T14:49:17;9.30;;;4.22;;
66542;SDS011;53395;37.360;-122.046;2023-09-18T14:52:01;9.40;;;3.97;;
66542;SDS011;53395;37.360;-122.046;2023-09-18T14:54:47;8.63;;;4.63;;
66542;SDS011;53395;37.360;-122.046;2023-09-18T14:57:32;7.25;;;4.28;;
66542;SDS011;53395;37.360;-122.046;2023-09-18T15:00:16;8.60;;;4.88;;
66542;SDS011;53395;37.360;-122.046;2023-09-18T15:03:01;9.75;;;4.65;;
66542;SDS011;53395;37.360;-122.046;2023-09-18T15:05:47;7.05;;;4.63;;
66542;SDS011;53395;37.360;-122.046;2023-09-18T15:08:31;17.65;;;5.18;;
66542;SDS011;53395;37.360;-122.046;2023-09-18T15:11:16;8.05;;;4.35;;
66542;SDS011;53395;37.360;-122.046;2023-09-18T15:14:01;13.50;;;5.65;;
66542;SDS011;53395;37.360;-122.046;2023-09-18T15:19:31;14.65;;;6.88;;
66542;SDS011;53395;37.360;-122.046;2023-09-18T15:22:16;11.45;;;6.65;;
66542;SDS011;53395;37.360;-122.046;2023-09-18T15:25:01;13.68;;;5.97;;
66542;SDS011;53395;37.360;-122.046;2023-09-18T15:27:45;14.55;;;6.32;;
66542;SDS011;53395;37.360;-122.046;2023-09-18T15:30:29;10.88;;;5.07;;
66542;SDS011;53395;37.360;-122.046;2023-09-18T15:33:13;8.55;;;4.88;;
66542;SDS011;53395;37.360;-122.046;2023-09-18T15:36:01;10.25;;;5.28;;
66542;SDS011;53395;37.360;-122.046;2023-09-18T15:38:46;9.68;;;5.05;;
66542;SDS011;53395;37.360;-122.046;2023-09-18T15:41:31;12.32;;;4.63;;
66542;SDS011;53395;37.360;-122.046;2023-09-18T15:44:16;13.27;;;5.03;;
66542;SDS011;53395;37.360;-122.046;2023-09-18T15:47:01;10.25;;;4.82;;
66542;SDS011;53395;37.360;-122.046;2023-09-18T15:49:45;11.77;;;4.93;;
66542;SDS011;53395;37.360;-122.046;2023-09-18T15:52:30;14.75;;;5.28;;
66542;SDS011;53395;37.360;-122.046;2023-09-18T15:55:14;10.55;;;4.78;;
66542;SDS011;53395;37.360;-122.046;2023-09-18T15:57:59;9.10;;;4.72;;
66542;SDS011;53395;37.360;-122.046;2023-09-18T16:00:44;12.25;;;5.20;;
66542;SDS011;53395;37.360;-122.046;2023-09-18T16:03:29;9.45;;;4.57;;
66542;SDS011;53395;37.360;-122.046;2023-09-18T16:06:16;11.10;;;4.60;;
66542;SDS011;53395;37.360;-122.046;2023-09-18T16:11:50;10.52;;;4.45;;
66542;SDS011;53395;37.360;-122.046;2023-09-18T16:14:34;9.77;;;3.90;;
66542;SDS011;53395;37.360;-122.046;2023-09-18T16:17:19;9.93;;;3.97;;
66542;SDS011;53395;37.360;-122.046;2023-09-18T16:20:04;7.22;;;3.88;;
66542;SDS011;53395;37.360;-122.046;2023-09-18T16:22:49;9.65;;;3.75;;
66542;SDS011;53395;37.360;-122.046;2023-09-18T16:25:34;9.43;;;3.70;;
66542;SDS011;53395;37.360;-122.046;2023-09-18T16:28:18;6.47;;;3.28;;
66542;SDS011;53395;37.360;-122.046;2023-09-18T16:31:22;7.03;;;3.28;;
66542;SDS011;53395;37.360;-122.046;2023-09-18T16:34:09;7.13;;;3.55;;
66542;SDS011;53395;37.360;-122.046;2023-09-18T16:36:53;6.65;;;3.15;;
66542;SDS011;53395;37.360;-122.046;2023-09-18T16:39:38;6.22;;;3.22;;
66542;SDS011;53395;37.360;-122.046;2023-09-18T16:42:23;6.35;;;3.45;;
66542;SDS011;53395;37.360;-122.046;2023-09-18T16:45:07;6.70;;;2.97;;
66542;SDS011;53395;37.360;-122.046;2023-09-18T16:47:52;6.78;;;3.25;;